createdAt,value
2023-01-20T00:01:28.951Z,7.43
2023-01-20T00:03:56.806Z,7.45
2023-01-20T00:06:29.424Z,6.93
2023-01-20T00:08:59.094Z,7.00
2023-01-20T00:11:26.362Z,7.47
2023-01-20T00:13:57.422Z,7.40
2023-01-20T00:16:24.631Z,6.60
2023-01-20T00:18:53.884Z,7.88
2023-01-20T00:21:21.283Z,8.43
2023-01-20T00:23:48.899Z,7.30
2023-01-20T00:26:21.026Z,7.43
2023-01-20T00:28:48.811Z,8.65
2023-01-20T00:31:29.019Z,7.40
2023-01-20T00:33:58.491Z,7.82
2023-01-20T00:36:26.827Z,8.00
2023-01-20T00:38:53.825Z,8.70
2023-01-20T00:41:20.569Z,9.07
2023-01-20T00:43:47.273Z,8.25
2023-01-20T00:46:16.734Z,7.78
2023-01-20T00:48:45.563Z,7.05
2023-01-20T00:51:12.312Z,7.80
2023-01-20T00:53:41.339Z,8.10
2023-01-20T00:56:10.728Z,6.95
2023-01-20T00:58:37.428Z,7.75
2023-01-20T01:01:06.494Z,6.72
2023-01-20T01:03:33.353Z,7.75
2023-01-20T01:06:13.912Z,7.47
2023-01-20T01:08:41.022Z,7.82
2023-01-20T01:11:08.178Z,7.65
2023-01-20T01:13:35.505Z,7.70
2023-01-20T01:16:02.321Z,7.30
2023-01-20T01:18:29.038Z,8.85
2023-01-20T01:20:55.838Z,8.27
2023-01-20T01:23:22.576Z,8.15
2023-01-20T01:25:51.459Z,7.82
2023-01-20T01:28:18.106Z,7.68
2023-01-20T01:30:44.774Z,8.43
2023-01-20T01:33:11.663Z,8.10
2023-01-20T01:35:40.557Z,7.93
2023-01-20T01:38:09.574Z,8.10
2023-01-20T01:40:38.449Z,7.55
2023-01-20T01:43:20.813Z,8.23
2023-01-20T01:45:47.618Z,8.15
2023-01-20T01:48:14.626Z,7.72
2023-01-20T01:50:54.684Z,8.15
2023-01-20T01:53:22.357Z,6.85
2023-01-20T01:55:59.089Z,7.88
2023-01-20T01:58:30.505Z,6.97
2023-01-20T02:00:57.196Z,7.25
2023-01-20T02:03:26.875Z,7.85
2023-01-20T02:05:54.895Z,8.57
2023-01-20T02:08:23.768Z,8.25
2023-01-20T02:10:50.481Z,9.45
2023-01-20T02:13:19.938Z,8.27
2023-01-20T02:15:57.244Z,8.02
2023-01-20T02:18:55.310Z,8.38
2023-01-20T02:21:24.896Z,7.82
2023-01-20T02:24:41.195Z,8.68
2023-01-20T02:27:28.685Z,7.50
2023-01-20T02:30:10.614Z,7.43
2023-01-20T02:33:03.843Z,7.35
2023-01-20T02:35:49.318Z,7.35
2023-01-20T02:38:42.670Z,6.85
2023-01-20T02:41:18.646Z,7.13
2023-01-20T02:43:48.669Z,7.35
2023-01-20T02:46:33.177Z,7.07
2023-01-20T02:49:14.615Z,7.00
2023-01-20T02:51:51.495Z,7.28
2023-01-20T02:54:20.635Z,7.05
2023-01-20T02:56:49.689Z,7.85
2023-01-20T02:59:23.604Z,7.20
2023-01-20T03:01:54.971Z,7.20
2023-01-20T03:04:30.595Z,7.07
2023-01-20T03:06:59.818Z,7.85
2023-01-20T03:09:32.818Z,7.50
2023-01-20T03:12:09.367Z,8.80
2023-01-20T03:14:36.075Z,7.10
2023-01-20T03:17:03.034Z,8.23
2023-01-20T03:19:32.316Z,8.07
2023-01-20T03:21:59.058Z,7.53
2023-01-20T03:24:28.956Z,7.90
2023-01-20T03:26:58.454Z,7.60
2023-01-20T03:29:27.347Z,8.20
2023-01-20T03:32:03.466Z,8.50
2023-01-20T03:34:33.715Z,8.10
2023-01-20T03:37:02.260Z,7.95
2023-01-20T03:39:29.562Z,6.85
2023-01-20T03:42:13.938Z,7.53
2023-01-20T03:44:56.156Z,7.97
2023-01-20T03:47:48.247Z,7.93
2023-01-20T03:50:40.188Z,8.00
2023-01-20T03:53:16.476Z,7.55
2023-01-20T03:55:49.670Z,8.25
2023-01-20T03:58:21.459Z,7.35
2023-01-20T04:00:50.458Z,7.68
2023-01-20T04:03:30.731Z,7.78
2023-01-20T04:06:03.531Z,7.47
2023-01-20T04:08:37.463Z,7.00
2023-01-20T04:11:06.746Z,7.85
2023-01-20T04:13:33.825Z,7.80
2023-01-20T04:16:02.490Z,7.38
2023-01-20T04:18:29.345Z,7.30
2023-01-20T04:21:03.488Z,7.85
2023-01-20T04:23:40.340Z,7.60
2023-01-20T04:26:06.975Z,7.72
2023-01-20T04:28:36.249Z,7.50
2023-01-20T04:31:05.593Z,7.82
2023-01-20T04:33:32.294Z,7.68
2023-01-20T04:35:58.951Z,8.02
2023-01-20T04:38:25.573Z,7.80
2023-01-20T04:40:52.257Z,8.52
2023-01-20T04:43:18.869Z,7.38
2023-01-20T04:45:47.631Z,7.93
2023-01-20T04:48:14.263Z,7.93
2023-01-20T04:50:41.642Z,7.70
2023-01-20T04:53:16.783Z,8.13
2023-01-20T04:55:43.469Z,7.72
2023-01-20T04:58:13.043Z,8.52
2023-01-20T05:00:39.698Z,7.95
2023-01-20T05:03:06.467Z,8.48
2023-01-20T05:05:33.256Z,8.43
2023-01-20T05:07:59.988Z,8.57
2023-01-20T05:10:26.661Z,8.00
2023-01-20T05:12:53.387Z,8.07
2023-01-20T05:15:20.083Z,7.72
2023-01-20T05:17:46.781Z,8.20
2023-01-20T05:20:14.519Z,7.88
2023-01-20T05:22:41.343Z,8.38
2023-01-20T05:25:08.511Z,7.78
2023-01-20T05:27:38.325Z,8.43
2023-01-20T05:30:06.831Z,8.85
2023-01-20T05:32:33.547Z,8.63
2023-01-20T05:35:02.636Z,8.45
2023-01-20T05:37:29.314Z,8.70
2023-01-20T05:39:55.994Z,8.68
2023-01-20T05:42:23.119Z,7.13
2023-01-20T05:44:49.815Z,8.25
2023-01-20T05:47:16.644Z,8.52
2023-01-20T05:49:43.309Z,8.25
2023-01-20T05:52:10.037Z,8.23
2023-01-20T05:54:36.806Z,8.23
2023-01-20T05:57:05.268Z,8.52
2023-01-20T05:59:34.397Z,8.65
2023-01-20T06:02:01.075Z,8.35
2023-01-20T06:04:27.851Z,8.30
2023-01-20T06:06:54.549Z,7.60
2023-01-20T06:09:21.252Z,9.65
2023-01-20T06:11:50.514Z,7.95
2023-01-20T06:14:17.268Z,8.10
2023-01-20T06:16:46.499Z,8.68
2023-01-20T06:19:13.222Z,8.75
2023-01-20T06:21:39.934Z,8.77
2023-01-20T06:24:06.949Z,8.50
2023-01-20T06:26:33.716Z,9.15
2023-01-20T06:29:01.384Z,9.35
2023-01-20T06:31:28.553Z,8.68
2023-01-20T06:33:56.254Z,8.93
2023-01-20T06:36:23.369Z,8.43
2023-01-20T06:38:53.268Z,8.85
2023-01-20T06:41:20.680Z,7.97
2023-01-20T06:43:47.439Z,8.50
2023-01-20T06:46:16.083Z,8.90
2023-01-20T06:48:44.323Z,8.48
2023-01-20T06:51:16.996Z,8.60
2023-01-20T06:53:44.284Z,8.32
2023-01-20T06:56:14.834Z,10.07
2023-01-20T06:58:41.983Z,8.90
2023-01-20T07:01:14.126Z,9.20
2023-01-20T07:03:44.364Z,9.30
2023-01-20T07:06:29.116Z,8.93
2023-01-20T07:08:58.682Z,9.18
2023-01-20T07:11:26.212Z,8.57
2023-01-20T07:13:53.057Z,8.40
2023-01-20T07:16:19.799Z,8.95
2023-01-20T07:18:52.940Z,8.75
2023-01-20T07:21:20.209Z,8.73
2023-01-20T07:23:47.462Z,9.20
2023-01-20T07:26:19.152Z,8.73
2023-01-20T07:28:46.628Z,8.82
2023-01-20T07:31:18.788Z,9.25
2023-01-20T07:33:46.118Z,10.13
2023-01-20T07:36:13.852Z,9.60
2023-01-20T07:38:43.397Z,8.75
2023-01-20T07:41:16.001Z,9.10
2023-01-20T07:43:49.731Z,9.23
2023-01-20T07:46:23.552Z,9.40
2023-01-20T07:48:50.809Z,8.73
2023-01-20T07:51:18.263Z,9.00
2023-01-20T07:53:47.891Z,9.88
2023-01-20T07:56:17.235Z,9.68
2023-01-20T07:58:45.246Z,10.45
2023-01-20T08:01:18.028Z,10.52
2023-01-20T08:03:45.217Z,10.13
2023-01-20T08:06:16.692Z,9.10
2023-01-20T08:08:43.800Z,9.68
2023-01-20T08:11:17.696Z,10.02
2023-01-20T08:13:47.092Z,10.15
2023-01-20T08:16:16.117Z,9.38
2023-01-20T08:18:43.286Z,9.50
2023-01-20T08:21:17.642Z,9.90
2023-01-20T08:23:46.602Z,9.82
2023-01-20T08:26:13.429Z,9.80
2023-01-20T08:28:40.129Z,9.48
2023-01-20T08:31:15.790Z,10.93
2023-01-20T08:33:43.317Z,10.82
2023-01-20T08:36:22.305Z,10.25
2023-01-20T08:38:51.913Z,10.18
2023-01-20T08:41:23.768Z,9.98
2023-01-20T08:43:50.659Z,10.00
2023-01-20T08:46:20.105Z,10.80
2023-01-20T08:48:50.724Z,10.73
2023-01-20T08:51:21.350Z,10.65
2023-01-20T08:53:49.237Z,10.60
2023-01-20T08:56:18.819Z,10.50
2023-01-20T08:58:45.879Z,10.65
2023-01-20T09:01:18.176Z,10.13
2023-01-20T09:04:03.801Z,10.90
2023-01-20T09:06:43.000Z,10.65
2023-01-20T09:09:13.479Z,11.00
2023-01-20T09:11:40.766Z,9.32
2023-01-20T09:14:07.516Z,9.73
2023-01-20T09:16:34.384Z,10.77
2023-01-20T09:19:02.996Z,9.25
2023-01-20T09:21:31.799Z,10.13
2023-01-20T09:23:58.608Z,9.77
2023-01-20T09:26:35.273Z,10.75
2023-01-20T09:29:09.364Z,9.80
2023-01-20T09:34:04.306Z,9.13
2023-01-20T09:36:31.176Z,8.32
2023-01-20T09:39:16.401Z,9.77
2023-01-20T09:42:08.046Z,8.98
2023-01-20T09:45:01.878Z,8.90
2023-01-20T09:47:31.483Z,8.13
2023-01-20T09:51:00.440Z,7.60
2023-01-20T09:53:47.474Z,5.75
2023-01-20T09:56:17.574Z,6.82
2023-01-20T09:59:09.417Z,6.15
2023-01-20T10:01:50.071Z,5.95
2023-01-20T10:04:41.432Z,5.70
2023-01-20T10:07:16.592Z,5.10
2023-01-20T10:09:58.846Z,4.10
2023-01-20T10:12:39.098Z,6.57
2023-01-20T10:15:22.184Z,6.45
2023-01-20T10:18:07.099Z,6.70
2023-01-20T10:20:49.860Z,5.43
2023-01-20T10:23:29.428Z,4.55
2023-01-20T10:26:00.864Z,5.22
2023-01-20T10:28:29.238Z,5.50
2023-01-20T10:31:03.083Z,5.30
2023-01-20T10:36:27.012Z,4.28
2023-01-20T10:38:59.272Z,4.63
2023-01-20T10:41:42.575Z,5.35
2023-01-20T10:44:14.187Z,4.57
2023-01-20T10:47:13.638Z,5.25
2023-01-20T10:49:58.509Z,5.05
2023-01-20T10:52:57.102Z,5.03
2023-01-20T10:55:36.429Z,5.53
2023-01-20T10:58:12.384Z,5.28
2023-01-20T11:00:41.483Z,4.93
2023-01-20T11:03:14.811Z,5.22
2023-01-20T11:05:43.073Z,4.45
2023-01-20T11:08:22.387Z,4.80
2023-01-20T11:10:56.523Z,5.00
2023-01-20T11:13:25.617Z,3.72
2023-01-20T11:15:59.634Z,4.55
2023-01-20T11:18:31.753Z,3.65
2023-01-20T11:21:04.978Z,4.30
2023-01-20T11:23:48.460Z,3.70
2023-01-20T11:26:28.033Z,4.00
2023-01-20T11:29:10.140Z,5.00
2023-01-20T11:31:41.475Z,4.18
2023-01-20T11:34:35.610Z,4.60
2023-01-20T11:37:10.565Z,3.95
2023-01-20T11:39:49.283Z,4.30
2023-01-20T11:42:26.507Z,4.15
2023-01-20T11:45:19.726Z,4.15
2023-01-20T11:48:04.489Z,4.30
2023-01-20T11:50:45.902Z,4.18
2023-01-20T11:53:22.366Z,4.10
2023-01-20T11:56:15.721Z,4.18
2023-01-20T11:58:59.087Z,4.20
2023-01-20T12:01:28.414Z,3.65
2023-01-20T12:04:37.823Z,3.83
2023-01-20T12:07:21.038Z,3.70
2023-01-20T12:09:54.430Z,3.60
2023-01-20T12:12:38.519Z,4.30
2023-01-20T12:17:59.282Z,4.07
2023-01-20T12:20:54.053Z,4.00
2023-01-20T12:23:33.418Z,3.60
2023-01-20T12:26:07.501Z,3.45
2023-01-20T12:28:59.625Z,3.45
2023-01-20T12:31:27.022Z,3.40
2023-01-20T12:34:01.045Z,9.15
2023-01-20T12:37:05.515Z,8.25
2023-01-20T12:39:51.416Z,8.38
2023-01-20T12:42:33.228Z,7.65
2023-01-20T12:45:26.080Z,6.80
2023-01-20T12:48:24.032Z,7.40
2023-01-20T12:51:05.727Z,6.85
2023-01-20T12:53:40.678Z,7.90
2023-01-20T12:56:44.463Z,9.55
2023-01-20T12:59:28.797Z,8.90
2023-01-20T13:02:18.506Z,8.48
2023-01-20T13:05:14.412Z,8.65
2023-01-20T13:08:06.349Z,9.98
2023-01-20T13:11:11.117Z,9.45
2023-01-20T13:16:31.166Z,8.35
2023-01-20T13:19:17.084Z,8.90
2023-01-20T13:21:43.903Z,9.55
2023-01-20T13:24:24.205Z,10.63
2023-01-20T13:26:53.567Z,10.93
2023-01-20T13:29:41.840Z,10.32
2023-01-20T13:32:27.098Z,9.93
2023-01-20T13:34:53.801Z,10.48
2023-01-20T13:37:31.632Z,9.60
2023-01-20T13:40:00.404Z,10.55
2023-01-20T13:42:36.061Z,10.00
2023-01-20T13:45:11.539Z,9.07
2023-01-20T13:47:59.420Z,9.95
2023-01-20T13:50:40.198Z,9.00
2023-01-20T13:53:24.106Z,9.23
2023-01-20T13:55:58.307Z,9.32
2023-01-20T13:58:25.271Z,8.05
2023-01-20T14:01:00.758Z,9.02
2023-01-20T14:03:50.423Z,7.65
2023-01-20T14:06:26.096Z,7.22
2023-01-20T14:08:52.840Z,7.63
2023-01-20T14:11:21.924Z,7.53
2023-01-20T14:14:17.902Z,6.30
2023-01-20T14:16:44.689Z,7.05
2023-01-20T14:19:32.609Z,7.13
2023-01-20T14:22:23.322Z,6.65
2023-01-20T14:24:57.238Z,6.05
2023-01-20T14:27:35.251Z,6.45
2023-01-20T14:30:29.434Z,6.70
2023-01-20T14:32:56.136Z,6.53
2023-01-20T14:35:33.460Z,6.82
2023-01-20T14:38:00.751Z,6.47
2023-01-20T14:40:31.815Z,6.03
2023-01-20T14:43:22.483Z,6.03
2023-01-20T14:45:54.205Z,6.28
2023-01-20T14:48:33.926Z,6.65
2023-01-20T14:51:04.141Z,6.72
2023-01-20T14:53:33.628Z,6.72
2023-01-20T14:56:02.137Z,6.72
2023-01-20T14:58:33.565Z,6.70
2023-01-20T15:01:05.831Z,6.82
2023-01-20T15:03:32.915Z,6.80
2023-01-20T15:06:04.315Z,6.57
2023-01-20T15:08:34.093Z,7.07
2023-01-20T15:11:25.691Z,6.13
2023-01-20T15:13:57.139Z,5.65
2023-01-20T15:16:28.055Z,5.20
2023-01-20T15:19:15.182Z,6.63
2023-01-20T15:21:53.798Z,6.25
2023-01-20T15:24:30.613Z,6.95
2023-01-20T15:27:00.462Z,6.38
2023-01-20T15:29:35.670Z,6.88
2023-01-20T15:32:10.333Z,6.78
2023-01-20T15:34:37.179Z,7.43
2023-01-20T15:37:17.030Z,7.57
2023-01-20T15:39:43.774Z,7.40
2023-01-20T15:42:11.850Z,7.25
2023-01-20T15:44:38.495Z,7.70
2023-01-20T15:47:33.270Z,7.60
2023-01-20T15:50:00.531Z,7.97
2023-01-20T15:52:27.674Z,7.32
2023-01-20T15:54:56.669Z,7.18
2023-01-20T15:57:23.751Z,7.55
2023-01-20T15:59:50.385Z,7.90
2023-01-20T16:02:21.488Z,8.10
2023-01-20T16:04:50.795Z,8.50
2023-01-20T16:07:19.703Z,8.70
2023-01-20T16:09:49.451Z,8.68
2023-01-20T16:12:18.007Z,8.38
2023-01-20T16:14:45.728Z,7.90
2023-01-20T16:17:23.026Z,9.65
2023-01-20T16:19:50.324Z,10.15
2023-01-20T16:22:17.861Z,10.10
2023-01-20T16:24:49.076Z,9.82
2023-01-20T16:27:23.204Z,10.45
2023-01-20T16:29:50.433Z,10.73
2023-01-20T16:32:21.821Z,10.57
2023-01-20T16:34:49.436Z,11.07
2023-01-20T16:37:16.098Z,11.07
2023-01-20T16:39:42.931Z,10.52
2023-01-20T16:42:12.391Z,11.35
2023-01-20T16:44:39.087Z,10.65
2023-01-20T16:47:06.525Z,11.32
2023-01-20T16:49:33.327Z,11.38
2023-01-20T16:52:00.129Z,11.05
2023-01-20T16:54:26.858Z,11.27
2023-01-20T16:56:53.607Z,10.25
2023-01-20T16:59:20.256Z,10.10
2023-01-20T17:01:50.008Z,10.77
2023-01-20T17:04:19.026Z,10.73
2023-01-20T17:06:45.734Z,9.70
2023-01-20T17:09:14.830Z,10.00
2023-01-20T17:11:43.751Z,9.68
2023-01-20T17:14:13.317Z,9.68
2023-01-20T17:16:40.280Z,9.63
2023-01-20T17:19:06.968Z,9.95
2023-01-20T17:21:39.990Z,9.68
2023-01-20T17:24:07.248Z,9.40
2023-01-20T17:26:34.539Z,9.65
2023-01-20T17:29:06.798Z,9.90
2023-01-20T17:31:36.492Z,9.70
2023-01-20T17:34:07.375Z,10.05
2023-01-20T17:36:37.628Z,10.90
2023-01-20T17:39:06.148Z,10.27
2023-01-20T17:41:33.935Z,11.20
2023-01-20T17:44:00.734Z,10.60
2023-01-20T17:46:29.546Z,10.68
2023-01-20T17:48:59.716Z,10.73
2023-01-20T17:51:29.214Z,11.20
2023-01-20T17:53:57.754Z,11.50
2023-01-20T17:56:24.893Z,11.20
2023-01-20T17:58:51.734Z,10.90
2023-01-20T18:01:29.654Z,11.93
2023-01-20T18:03:58.626Z,12.25
2023-01-20T18:06:26.946Z,10.60
2023-01-20T18:09:01.220Z,10.23
2023-01-20T18:11:30.498Z,10.57
2023-01-20T18:13:59.055Z,9.63
2023-01-20T18:16:30.873Z,8.18
2023-01-20T18:19:00.048Z,8.38
2023-01-20T18:21:39.726Z,8.73
2023-01-20T18:24:08.316Z,9.15
2023-01-20T18:26:40.662Z,9.13
2023-01-20T18:29:12.260Z,8.45
2023-01-20T18:31:39.366Z,6.85
2023-01-20T18:34:10.065Z,7.20
2023-01-20T18:36:42.079Z,7.68
2023-01-20T18:39:19.300Z,7.68
2023-01-20T18:41:46.634Z,8.15
2023-01-20T18:44:13.438Z,8.10
2023-01-20T18:46:42.295Z,8.02
2023-01-20T18:49:14.827Z,8.52
2023-01-20T18:51:42.350Z,8.40
2023-01-20T18:54:12.402Z,8.80
2023-01-20T18:56:39.983Z,8.73
2023-01-20T18:59:07.264Z,9.27
2023-01-20T19:01:36.584Z,9.35
2023-01-20T19:04:07.560Z,10.25
2023-01-20T19:06:39.958Z,9.77
2023-01-20T19:09:07.538Z,10.55
2023-01-20T19:11:39.351Z,11.02
2023-01-20T19:14:08.435Z,11.02
2023-01-20T19:16:39.311Z,11.55
2023-01-20T19:19:07.487Z,11.50
2023-01-20T19:21:36.451Z,11.73
2023-01-20T19:24:06.069Z,12.63
2023-01-20T19:26:39.255Z,13.02
2023-01-20T19:29:11.726Z,13.13
2023-01-20T19:31:39.779Z,13.05
2023-01-20T19:34:07.450Z,13.40
2023-01-20T19:36:34.769Z,14.52
2023-01-20T19:39:04.617Z,14.52
2023-01-20T19:41:34.184Z,14.95
2023-01-20T19:44:06.544Z,14.88
2023-01-20T19:46:38.786Z,13.55
2023-01-20T19:49:08.942Z,14.13
2023-01-20T19:51:36.524Z,15.07
2023-01-20T19:54:04.206Z,14.13
2023-01-20T19:56:33.475Z,14.25
2023-01-20T19:59:01.693Z,14.07
2023-01-20T20:01:31.786Z,12.98
2023-01-20T20:03:59.539Z,12.65
2023-01-20T20:06:32.047Z,14.13
2023-01-20T20:09:06.544Z,12.73
2023-01-20T20:11:36.273Z,13.10
2023-01-20T20:14:05.472Z,12.98
2023-01-20T20:16:34.639Z,12.82
2023-01-20T20:19:04.203Z,12.32
2023-01-20T20:21:30.992Z,13.00
2023-01-20T20:24:01.859Z,13.43
2023-01-20T20:26:37.039Z,12.57
2023-01-20T20:29:05.949Z,12.32
2023-01-20T20:31:34.204Z,11.57
2023-01-20T20:34:08.505Z,12.27
2023-01-20T20:36:35.565Z,12.43
2023-01-20T20:39:03.844Z,12.00
2023-01-20T20:41:35.253Z,12.35
2023-01-20T20:44:02.340Z,13.27
2023-01-20T20:46:29.972Z,12.80
2023-01-20T20:49:00.953Z,13.00
2023-01-20T20:51:34.130Z,13.48
2023-01-20T20:54:02.970Z,14.15
2023-01-20T20:56:33.350Z,14.80
2023-01-20T20:59:03.095Z,13.65
2023-01-20T21:01:35.588Z,13.80
2023-01-20T21:04:03.592Z,13.50
2023-01-20T21:06:30.622Z,14.52
2023-01-20T21:08:58.528Z,14.32
2023-01-20T21:11:25.312Z,13.73
2023-01-20T21:13:52.878Z,13.18
2023-01-20T21:16:22.806Z,14.65
2023-01-20T21:18:52.429Z,14.02
2023-01-20T21:21:22.378Z,14.02
2023-01-20T21:23:55.738Z,14.27
2023-01-20T21:26:24.177Z,14.05
2023-01-20T21:28:51.190Z,15.23
2023-01-20T21:31:23.426Z,15.32
2023-01-20T21:33:55.401Z,15.80
2023-01-20T21:36:22.605Z,15.68
2023-01-20T21:38:50.173Z,17.20
2023-01-20T21:41:18.000Z,16.27
2023-01-20T21:44:05.156Z,16.70
2023-01-20T21:46:41.743Z,17.20
2023-01-20T21:49:27.591Z,16.45
2023-01-20T21:52:14.161Z,17.20
2023-01-20T21:54:45.080Z,17.02
2023-01-20T21:57:12.081Z,17.95
2023-01-20T21:59:39.132Z,17.38
2023-01-20T22:02:09.215Z,17.40
2023-01-20T22:04:35.909Z,19.45
2023-01-20T22:07:04.852Z,18.85
2023-01-20T22:09:31.606Z,18.83
2023-01-20T22:11:58.291Z,18.70
2023-01-20T22:14:27.244Z,20.40
2023-01-20T22:16:53.989Z,19.98
2023-01-20T22:19:21.272Z,19.00
2023-01-20T22:21:47.934Z,21.23
2023-01-20T22:24:14.638Z,21.75
2023-01-20T22:26:41.319Z,22.13
2023-01-20T22:29:08.330Z,20.55
2023-01-20T22:31:35.111Z,22.90
2023-01-20T22:34:09.091Z,23.38
2023-01-20T22:36:36.621Z,23.67
2023-01-20T22:39:05.598Z,23.77
2023-01-20T22:41:32.438Z,23.52
2023-01-20T22:43:59.282Z,24.90
2023-01-20T22:46:30.285Z,24.40
2023-01-20T22:48:57.951Z,25.13
2023-01-20T22:51:29.176Z,24.95
2023-01-20T22:53:57.771Z,23.58
2023-01-20T22:56:29.179Z,24.83
2023-01-20T22:58:57.059Z,22.92
2023-01-20T23:01:25.700Z,23.52
2023-01-20T23:03:59.914Z,25.38
2023-01-20T23:06:28.657Z,24.17
2023-01-20T23:08:57.925Z,24.98
2023-01-20T23:11:24.719Z,25.40
2023-01-20T23:13:52.292Z,25.20
2023-01-20T23:16:22.860Z,25.52
2023-01-20T23:18:50.942Z,26.55
2023-01-20T23:21:18.521Z,24.95
2023-01-20T23:23:45.322Z,24.95
2023-01-20T23:26:18.707Z,25.15
2023-01-20T23:28:46.520Z,25.50
2023-01-20T23:31:16.520Z,26.10
2023-01-20T23:33:44.343Z,26.10
2023-01-20T23:36:14.117Z,25.50
2023-01-20T23:38:41.651Z,25.27
2023-01-20T23:41:11.640Z,25.25
2023-01-20T23:43:38.856Z,25.58
2023-01-20T23:46:08.651Z,24.73
2023-01-20T23:48:36.059Z,25.02
2023-01-20T23:51:06.282Z,24.98
2023-01-20T23:53:38.600Z,24.80
2023-01-20T23:56:25.672Z,24.63
2023-01-20T23:58:52.355Z,24.40
